sensor_id;sensor_type;location;lat;lon;timestamp;P1;durP1;ratioP1;P2;durP2;ratioP2
71622;SDS011;59473;53.214;5.728;2022-08-19T00:00:27;13.70;;;5.20;;
71622;SDS011;59473;53.214;5.728;2022-08-19T00:02:52;20.07;;;5.10;;
71622;SDS011;59473;53.214;5.728;2022-08-19T00:05:18;10.20;;;5.33;;
71622;SDS011;59473;53.214;5.728;2022-08-19T00:07:44;13.10;;;5.82;;
71622;SDS011;59473;53.214;5.728;2022-08-19T00:10:11;12.53;;;5.40;;
71622;SDS011;59473;53.214;5.728;2022-08-19T00:12:36;14.27;;;6.03;;
71622;SDS011;59473;53.214;5.728;2022-08-19T00:15:03;8.82;;;5.05;;
71622;SDS011;59473;53.214;5.728;2022-08-19T00:17:28;12.35;;;5.97;;
71622;SDS011;59473;53.214;5.728;2022-08-19T00:19:54;12.97;;;5.60;;
71622;SDS011;59473;53.214;5.728;2022-08-19T00:22:19;11.50;;;5.47;;
71622;SDS011;59473;53.214;5.728;2022-08-19T00:24:45;12.97;;;5.50;;
71622;SDS011;59473;53.214;5.728;2022-08-19T00:27:10;11.87;;;5.50;;
71622;SDS011;59473;53.214;5.728;2022-08-19T00:29:36;12.40;;;5.75;;
71622;SDS011;59473;53.214;5.728;2022-08-19T00:32:01;15.47;;;6.07;;
71622;SDS011;59473;53.214;5.728;2022-08-19T00:34:26;12.83;;;6.30;;
71622;SDS011;59473;53.214;5.728;2022-08-19T00:36:53;11.48;;;5.85;;
71622;SDS011;59473;53.214;5.728;2022-08-19T00:39:19;14.57;;;6.23;;
71622;SDS011;59473;53.214;5.728;2022-08-19T00:41:47;14.17;;;6.87;;
71622;SDS011;59473;53.214;5.728;2022-08-19T00:44:22;16.35;;;8.02;;
71622;SDS011;59473;53.214;5.728;2022-08-19T00:46:48;13.77;;;6.88;;
71622;SDS011;59473;53.214;5.728;2022-08-19T00:49:29;12.57;;;7.20;;
71622;SDS011;59473;53.214;5.728;2022-08-19T00:51:58;11.88;;;6.60;;
71622;SDS011;59473;53.214;5.728;2022-08-19T00:54:25;13.50;;;6.40;;
71622;SDS011;59473;53.214;5.728;2022-08-19T00:56:51;16.70;;;7.35;;
71622;SDS011;59473;53.214;5.728;2022-08-19T00:59:16;23.33;;;7.63;;
71622;SDS011;59473;53.214;5.728;2022-08-19T01:01:43;15.85;;;7.63;;
71622;SDS011;59473;53.214;5.728;2022-08-19T01:04:09;15.07;;;7.55;;
71622;SDS011;59473;53.214;5.728;2022-08-19T01:06:35;14.43;;;7.50;;
71622;SDS011;59473;53.214;5.728;2022-08-19T01:09:01;20.00;;;7.78;;
71622;SDS011;59473;53.214;5.728;2022-08-19T01:11:27;15.37;;;7.37;;
71622;SDS011;59473;53.214;5.728;2022-08-19T01:13:53;13.10;;;7.30;;
71622;SDS011;59473;53.214;5.728;2022-08-19T01:16:19;14.87;;;7.80;;
71622;SDS011;59473;53.214;5.728;2022-08-19T01:18:45;20.38;;;8.13;;
71622;SDS011;59473;53.214;5.728;2022-08-19T01:21:17;18.40;;;8.20;;
71622;SDS011;59473;53.214;5.728;2022-08-19T01:23:43;14.57;;;7.63;;
71622;SDS011;59473;53.214;5.728;2022-08-19T01:26:13;17.48;;;7.82;;
71622;SDS011;59473;53.214;5.728;2022-08-19T01:28:40;16.83;;;7.65;;
71622;SDS011;59473;53.214;5.728;2022-08-19T01:31:07;13.97;;;7.73;;
71622;SDS011;59473;53.214;5.728;2022-08-19T01:33:32;16.05;;;7.70;;
71622;SDS011;59473;53.214;5.728;2022-08-19T01:36:08;14.23;;;7.15;;
71622;SDS011;59473;53.214;5.728;2022-08-19T01:38:35;14.40;;;7.40;;
71622;SDS011;59473;53.214;5.728;2022-08-19T01:41:01;17.70;;;7.80;;
71622;SDS011;59473;53.214;5.728;2022-08-19T01:43:26;15.03;;;7.40;;
71622;SDS011;59473;53.214;5.728;2022-08-19T01:45:51;15.10;;;8.98;;
71622;SDS011;59473;53.214;5.728;2022-08-19T01:48:18;18.80;;;8.38;;
71622;SDS011;59473;53.214;5.728;2022-08-19T01:50:43;16.38;;;8.45;;
71622;SDS011;59473;53.214;5.728;2022-08-19T01:53:10;17.30;;;8.10;;
71622;SDS011;59473;53.214;5.728;2022-08-19T01:55:38;13.83;;;7.73;;
71622;SDS011;59473;53.214;5.728;2022-08-19T01:58:04;16.80;;;8.82;;
71622;SDS011;59473;53.214;5.728;2022-08-19T02:00:30;15.38;;;8.38;;
71622;SDS011;59473;53.214;5.728;2022-08-19T02:02:56;15.13;;;8.30;;
71622;SDS011;59473;53.214;5.728;2022-08-19T02:05:21;17.43;;;8.47;;
71622;SDS011;59473;53.214;5.728;2022-08-19T02:07:47;15.40;;;8.33;;
71622;SDS011;59473;53.214;5.728;2022-08-19T02:10:17;16.50;;;8.13;;
71622;SDS011;59473;53.214;5.728;2022-08-19T02:12:44;16.33;;;9.05;;
71622;SDS011;59473;53.214;5.728;2022-08-19T02:15:09;16.20;;;8.73;;
71622;SDS011;59473;53.214;5.728;2022-08-19T02:17:34;18.77;;;8.23;;
71622;SDS011;59473;53.214;5.728;2022-08-19T02:20:00;16.57;;;8.30;;
71622;SDS011;59473;53.214;5.728;2022-08-19T02:22:26;17.92;;;8.07;;
71622;SDS011;59473;53.214;5.728;2022-08-19T02:24:52;16.93;;;8.13;;
71622;SDS011;59473;53.214;5.728;2022-08-19T02:27:17;16.33;;;8.63;;
71622;SDS011;59473;53.214;5.728;2022-08-19T02:29:42;16.50;;;9.00;;
71622;SDS011;59473;53.214;5.728;2022-08-19T02:32:08;19.40;;;8.93;;
71622;SDS011;59473;53.214;5.728;2022-08-19T02:34:33;18.67;;;8.93;;
71622;SDS011;59473;53.214;5.728;2022-08-19T02:36:58;22.17;;;9.27;;
71622;SDS011;59473;53.214;5.728;2022-08-19T02:39:24;18.00;;;8.33;;
71622;SDS011;59473;53.214;5.728;2022-08-19T02:41:49;19.20;;;9.37;;
71622;SDS011;59473;53.214;5.728;2022-08-19T02:44:15;22.25;;;9.80;;
71622;SDS011;59473;53.214;5.728;2022-08-19T02:46:40;18.87;;;9.80;;
71622;SDS011;59473;53.214;5.728;2022-08-19T02:49:06;19.90;;;9.07;;
71622;SDS011;59473;53.214;5.728;2022-08-19T02:51:34;20.90;;;10.18;;
71622;SDS011;59473;53.214;5.728;2022-08-19T02:54:00;25.60;;;10.85;;
71622;SDS011;59473;53.214;5.728;2022-08-19T02:56:25;19.73;;;10.43;;
71622;SDS011;59473;53.214;5.728;2022-08-19T02:58:52;21.13;;;9.77;;
71622;SDS011;59473;53.214;5.728;2022-08-19T03:01:22;25.27;;;10.03;;
71622;SDS011;59473;53.214;5.728;2022-08-19T03:03:47;24.30;;;11.13;;
71622;SDS011;59473;53.214;5.728;2022-08-19T03:06:14;19.53;;;9.90;;
71622;SDS011;59473;53.214;5.728;2022-08-19T03:08:40;19.33;;;9.95;;
71622;SDS011;59473;53.214;5.728;2022-08-19T03:11:06;18.15;;;9.88;;
71622;SDS011;59473;53.214;5.728;2022-08-19T03:13:36;23.67;;;10.30;;
71622;SDS011;59473;53.214;5.728;2022-08-19T03:16:04;21.65;;;9.60;;
71622;SDS011;59473;53.214;5.728;2022-08-19T03:18:29;20.42;;;9.57;;
71622;SDS011;59473;53.214;5.728;2022-08-19T03:20:54;19.10;;;9.67;;
71622;SDS011;59473;53.214;5.728;2022-08-19T03:23:19;20.13;;;9.87;;
71622;SDS011;59473;53.214;5.728;2022-08-19T03:25:46;22.17;;;10.15;;
71622;SDS011;59473;53.214;5.728;2022-08-19T03:28:13;22.02;;;10.30;;
71622;SDS011;59473;53.214;5.728;2022-08-19T03:30:39;21.90;;;9.35;;
71622;SDS011;59473;53.214;5.728;2022-08-19T03:33:05;22.80;;;9.65;;
71622;SDS011;59473;53.214;5.728;2022-08-19T03:35:31;21.03;;;9.77;;
71622;SDS011;59473;53.214;5.728;2022-08-19T03:37:57;21.50;;;9.90;;
71622;SDS011;59473;53.214;5.728;2022-08-19T03:40:23;23.17;;;9.52;;
71622;SDS011;59473;53.214;5.728;2022-08-19T03:42:48;21.37;;;9.57;;
71622;SDS011;59473;53.214;5.728;2022-08-19T03:45:14;22.98;;;10.95;;
71622;SDS011;59473;53.214;5.728;2022-08-19T03:47:40;18.47;;;9.27;;
71622;SDS011;59473;53.214;5.728;2022-08-19T03:50:05;20.17;;;9.67;;
71622;SDS011;59473;53.214;5.728;2022-08-19T03:52:30;21.33;;;9.17;;
71622;SDS011;59473;53.214;5.728;2022-08-19T03:54:55;18.50;;;8.80;;
71622;SDS011;59473;53.214;5.728;2022-08-19T03:57:21;20.30;;;9.60;;
71622;SDS011;59473;53.214;5.728;2022-08-19T03:59:46;20.90;;;10.00;;
71622;SDS011;59473;53.214;5.728;2022-08-19T04:02:12;20.80;;;10.57;;
71622;SDS011;59473;53.214;5.728;2022-08-19T04:04:41;21.38;;;10.27;;
71622;SDS011;59473;53.214;5.728;2022-08-19T04:07:08;20.43;;;10.20;;
71622;SDS011;59473;53.214;5.728;2022-08-19T04:09:34;22.98;;;10.63;;
71622;SDS011;59473;53.214;5.728;2022-08-19T04:11:59;23.20;;;10.60;;
71622;SDS011;59473;53.214;5.728;2022-08-19T04:14:25;23.57;;;10.50;;
71622;SDS011;59473;53.214;5.728;2022-08-19T04:16:51;22.35;;;10.35;;
71622;SDS011;59473;53.214;5.728;2022-08-19T04:19:17;21.92;;;9.48;;
71622;SDS011;59473;53.214;5.728;2022-08-19T04:21:43;21.23;;;9.27;;
71622;SDS011;59473;53.214;5.728;2022-08-19T04:24:10;21.70;;;9.57;;
71622;SDS011;59473;53.214;5.728;2022-08-19T04:26:35;24.47;;;10.37;;
71622;SDS011;59473;53.214;5.728;2022-08-19T04:29:03;21.63;;;11.05;;
71622;SDS011;59473;53.214;5.728;2022-08-19T04:31:30;21.40;;;10.02;;
71622;SDS011;59473;53.214;5.728;2022-08-19T04:33:56;21.40;;;10.10;;
71622;SDS011;59473;53.214;5.728;2022-08-19T04:36:22;20.88;;;10.35;;
71622;SDS011;59473;53.214;5.728;2022-08-19T04:38:48;21.30;;;10.48;;
71622;SDS011;59473;53.214;5.728;2022-08-19T04:41:14;21.17;;;10.63;;
71622;SDS011;59473;53.214;5.728;2022-08-19T04:43:58;21.73;;;10.43;;
71622;SDS011;59473;53.214;5.728;2022-08-19T04:46:23;23.17;;;10.40;;
71622;SDS011;59473;53.214;5.728;2022-08-19T04:48:48;21.27;;;10.93;;
71622;SDS011;59473;53.214;5.728;2022-08-19T04:51:14;24.20;;;10.97;;
71622;SDS011;59473;53.214;5.728;2022-08-19T04:53:40;32.97;;;11.88;;
71622;SDS011;59473;53.214;5.728;2022-08-19T04:56:10;23.85;;;11.13;;
71622;SDS011;59473;53.214;5.728;2022-08-19T04:58:36;27.13;;;11.70;;
71622;SDS011;59473;53.214;5.728;2022-08-19T05:01:02;25.10;;;11.95;;
71622;SDS011;59473;53.214;5.728;2022-08-19T05:03:27;28.90;;;11.83;;
71622;SDS011;59473;53.214;5.728;2022-08-19T05:05:56;26.80;;;11.85;;
71622;SDS011;59473;53.214;5.728;2022-08-19T05:08:21;29.10;;;11.67;;
71622;SDS011;59473;53.214;5.728;2022-08-19T05:10:50;26.57;;;11.60;;
71622;SDS011;59473;53.214;5.728;2022-08-19T05:13:16;27.60;;;11.35;;
71622;SDS011;59473;53.214;5.728;2022-08-19T05:15:42;25.85;;;11.95;;
71622;SDS011;59473;53.214;5.728;2022-08-19T05:18:07;30.13;;;12.40;;
71622;SDS011;59473;53.214;5.728;2022-08-19T05:20:51;27.55;;;11.18;;
71622;SDS011;59473;53.214;5.728;2022-08-19T05:23:35;26.13;;;11.90;;
71622;SDS011;59473;53.214;5.728;2022-08-19T05:26:00;23.97;;;10.93;;
71622;SDS011;59473;53.214;5.728;2022-08-19T05:28:26;25.30;;;12.00;;
71622;SDS011;59473;53.214;5.728;2022-08-19T05:30:51;27.43;;;13.23;;
71622;SDS011;59473;53.214;5.728;2022-08-19T05:33:17;25.65;;;11.82;;
71622;SDS011;59473;53.214;5.728;2022-08-19T05:35:43;26.47;;;12.23;;
71622;SDS011;59473;53.214;5.728;2022-08-19T05:38:09;26.63;;;12.05;;
71622;SDS011;59473;53.214;5.728;2022-08-19T05:40:34;26.30;;;12.60;;
71622;SDS011;59473;53.214;5.728;2022-08-19T05:43:01;26.38;;;11.10;;
71622;SDS011;59473;53.214;5.728;2022-08-19T05:45:26;26.67;;;12.33;;
71622;SDS011;59473;53.214;5.728;2022-08-19T05:47:52;30.23;;;12.60;;
71622;SDS011;59473;53.214;5.728;2022-08-19T05:50:18;29.30;;;11.90;;
71622;SDS011;59473;53.214;5.728;2022-08-19T05:52:43;27.20;;;13.10;;
71622;SDS011;59473;53.214;5.728;2022-08-19T05:55:08;29.57;;;12.53;;
71622;SDS011;59473;53.214;5.728;2022-08-19T05:57:34;28.02;;;12.80;;
71622;SDS011;59473;53.214;5.728;2022-08-19T05:59:59;27.13;;;12.03;;
71622;SDS011;59473;53.214;5.728;2022-08-19T06:02:27;22.85;;;12.05;;
71622;SDS011;59473;53.214;5.728;2022-08-19T06:04:52;26.40;;;11.67;;
71622;SDS011;59473;53.214;5.728;2022-08-19T06:07:17;23.97;;;11.97;;
71622;SDS011;59473;53.214;5.728;2022-08-19T06:09:42;21.57;;;11.63;;
71622;SDS011;59473;53.214;5.728;2022-08-19T06:12:08;21.77;;;12.10;;
71622;SDS011;59473;53.214;5.728;2022-08-19T06:14:34;21.03;;;10.47;;
71622;SDS011;59473;53.214;5.728;2022-08-19T06:16:59;20.63;;;11.13;;
71622;SDS011;59473;53.214;5.728;2022-08-19T06:19:26;19.80;;;11.10;;
71622;SDS011;59473;53.214;5.728;2022-08-19T06:21:54;18.67;;;11.23;;
71622;SDS011;59473;53.214;5.728;2022-08-19T06:24:20;18.63;;;11.07;;
71622;SDS011;59473;53.214;5.728;2022-08-19T06:26:48;19.77;;;10.98;;
71622;SDS011;59473;53.214;5.728;2022-08-19T06:29:14;17.30;;;10.90;;
71622;SDS011;59473;53.214;5.728;2022-08-19T06:31:43;20.80;;;11.85;;
71622;SDS011;59473;53.214;5.728;2022-08-19T06:34:09;18.70;;;11.17;;
71622;SDS011;59473;53.214;5.728;2022-08-19T06:36:36;18.67;;;10.70;;
71622;SDS011;59473;53.214;5.728;2022-08-19T06:39:06;20.85;;;11.35;;
71622;SDS011;59473;53.214;5.728;2022-08-19T06:41:34;19.20;;;10.17;;
71622;SDS011;59473;53.214;5.728;2022-08-19T06:43:59;17.63;;;10.80;;
71622;SDS011;59473;53.214;5.728;2022-08-19T06:46:25;22.27;;;10.97;;
71622;SDS011;59473;53.214;5.728;2022-08-19T06:48:51;18.63;;;10.95;;
71622;SDS011;59473;53.214;5.728;2022-08-19T06:51:18;17.20;;;10.52;;
71622;SDS011;59473;53.214;5.728;2022-08-19T06:53:50;20.00;;;10.90;;
71622;SDS011;59473;53.214;5.728;2022-08-19T06:56:17;19.70;;;11.02;;
71622;SDS011;59473;53.214;5.728;2022-08-19T06:58:44;18.42;;;11.50;;
71622;SDS011;59473;53.214;5.728;2022-08-19T07:01:09;20.00;;;10.93;;
71622;SDS011;59473;53.214;5.728;2022-08-19T07:03:35;17.20;;;10.98;;
71622;SDS011;59473;53.214;5.728;2022-08-19T07:06:05;19.90;;;12.70;;
71622;SDS011;59473;53.214;5.728;2022-08-19T07:08:30;18.23;;;11.57;;
71622;SDS011;59473;53.214;5.728;2022-08-19T07:10:56;16.55;;;11.32;;
71622;SDS011;59473;53.214;5.728;2022-08-19T07:13:21;18.27;;;11.70;;
71622;SDS011;59473;53.214;5.728;2022-08-19T07:15:47;18.60;;;12.10;;
71622;SDS011;59473;53.214;5.728;2022-08-19T07:18:15;18.83;;;11.95;;
71622;SDS011;59473;53.214;5.728;2022-08-19T07:20:41;21.30;;;12.18;;
71622;SDS011;59473;53.214;5.728;2022-08-19T07:23:08;17.92;;;11.75;;
71622;SDS011;59473;53.214;5.728;2022-08-19T07:25:33;17.93;;;12.27;;
71622;SDS011;59473;53.214;5.728;2022-08-19T07:27:58;18.92;;;11.98;;
71622;SDS011;59473;53.214;5.728;2022-08-19T07:30:23;19.20;;;12.20;;
71622;SDS011;59473;53.214;5.728;2022-08-19T07:32:49;20.45;;;12.68;;
71622;SDS011;59473;53.214;5.728;2022-08-19T07:35:16;19.38;;;11.48;;
71622;SDS011;59473;53.214;5.728;2022-08-19T07:37:44;19.40;;;12.82;;
71622;SDS011;59473;53.214;5.728;2022-08-19T07:40:10;21.60;;;12.80;;
71622;SDS011;59473;53.214;5.728;2022-08-19T07:42:36;21.38;;;14.27;;
71622;SDS011;59473;53.214;5.728;2022-08-19T07:45:01;24.23;;;14.30;;
71622;SDS011;59473;53.214;5.728;2022-08-19T07:47:26;20.73;;;14.00;;
71622;SDS011;59473;53.214;5.728;2022-08-19T07:49:53;22.65;;;15.93;;
71622;SDS011;59473;53.214;5.728;2022-08-19T07:52:18;24.57;;;15.97;;
71622;SDS011;59473;53.214;5.728;2022-08-19T07:54:43;22.97;;;16.23;;
71622;SDS011;59473;53.214;5.728;2022-08-19T07:57:09;28.50;;;18.40;;
71622;SDS011;59473;53.214;5.728;2022-08-19T07:59:34;27.97;;;17.83;;
71622;SDS011;59473;53.214;5.728;2022-08-19T08:02:00;26.75;;;18.27;;
71622;SDS011;59473;53.214;5.728;2022-08-19T08:04:26;29.17;;;18.77;;
71622;SDS011;59473;53.214;5.728;2022-08-19T08:07:10;27.58;;;18.58;;
71622;SDS011;59473;53.214;5.728;2022-08-19T08:09:54;29.45;;;19.60;;
71622;SDS011;59473;53.214;5.728;2022-08-19T08:12:21;34.77;;;20.47;;
71622;SDS011;59473;53.214;5.728;2022-08-19T08:14:50;31.73;;;21.10;;
71622;SDS011;59473;53.214;5.728;2022-08-19T08:17:17;32.67;;;22.27;;
71622;SDS011;59473;53.214;5.728;2022-08-19T08:19:43;33.20;;;21.52;;
71622;SDS011;59473;53.214;5.728;2022-08-19T08:22:09;33.97;;;22.23;;
71622;SDS011;59473;53.214;5.728;2022-08-19T08:24:54;29.30;;;18.67;;
71622;SDS011;59473;53.214;5.728;2022-08-19T08:27:20;32.70;;;18.13;;
71622;SDS011;59473;53.214;5.728;2022-08-19T08:29:45;30.70;;;17.63;;
71622;SDS011;59473;53.214;5.728;2022-08-19T08:32:11;35.73;;;20.37;;
71622;SDS011;59473;53.214;5.728;2022-08-19T08:34:36;31.93;;;18.23;;
71622;SDS011;59473;53.214;5.728;2022-08-19T08:37:02;25.73;;;17.33;;
71622;SDS011;59473;53.214;5.728;2022-08-19T08:39:28;32.40;;;17.83;;
71622;SDS011;59473;53.214;5.728;2022-08-19T08:41:58;29.10;;;17.00;;
71622;SDS011;59473;53.214;5.728;2022-08-19T08:47:02;24.30;;;15.20;;
71622;SDS011;59473;53.214;5.728;2022-08-19T08:49:41;26.73;;;15.75;;
71622;SDS011;59473;53.214;5.728;2022-08-19T08:52:51;25.20;;;16.10;;
71622;SDS011;59473;53.214;5.728;2022-08-19T08:55:00;26.95;;;16.42;;
71622;SDS011;59473;53.214;5.728;2022-08-19T08:58:11;26.35;;;15.70;;
71622;SDS011;59473;53.214;5.728;2022-08-19T09:00:24;28.17;;;14.98;;
71622;SDS011;59473;53.214;5.728;2022-08-19T09:02:50;23.15;;;14.38;;
71622;SDS011;59473;53.214;5.728;2022-08-19T09:05:15;24.87;;;12.50;;
71622;SDS011;59473;53.214;5.728;2022-08-19T09:15:35;25.83;;;14.82;;
71622;SDS011;59473;53.214;5.728;2022-08-19T09:18:03;23.98;;;13.45;;
71622;SDS011;59473;53.214;5.728;2022-08-19T09:20:28;23.60;;;13.10;;
71622;SDS011;59473;53.214;5.728;2022-08-19T09:22:55;32.17;;;13.85;;
71622;SDS011;59473;53.214;5.728;2022-08-19T09:25:21;23.07;;;13.33;;
71622;SDS011;59473;53.214;5.728;2022-08-19T09:27:47;23.83;;;13.85;;
71622;SDS011;59473;53.214;5.728;2022-08-19T09:30:15;23.83;;;13.07;;
71622;SDS011;59473;53.214;5.728;2022-08-19T09:32:40;22.98;;;12.68;;
71622;SDS011;59473;53.214;5.728;2022-08-19T09:35:07;24.48;;;12.98;;
71622;SDS011;59473;53.214;5.728;2022-08-19T09:37:32;22.43;;;11.57;;
71622;SDS011;59473;53.214;5.728;2022-08-19T09:39:58;19.90;;;11.10;;
71622;SDS011;59473;53.214;5.728;2022-08-19T09:42:23;19.37;;;12.67;;
71622;SDS011;59473;53.214;5.728;2022-08-19T09:44:48;22.73;;;12.57;;
71622;SDS011;59473;53.214;5.728;2022-08-19T09:47:13;21.23;;;13.43;;
71622;SDS011;59473;53.214;5.728;2022-08-19T09:49:40;18.48;;;12.23;;
71622;SDS011;59473;53.214;5.728;2022-08-19T09:52:06;22.53;;;11.10;;
71622;SDS011;59473;53.214;5.728;2022-08-19T09:54:33;22.30;;;12.00;;
71622;SDS011;59473;53.214;5.728;2022-08-19T09:56:58;22.77;;;11.73;;
71622;SDS011;59473;53.214;5.728;2022-08-19T09:59:25;17.33;;;10.60;;
71622;SDS011;59473;53.214;5.728;2022-08-19T10:01:51;16.43;;;9.10;;
71622;SDS011;59473;53.214;5.728;2022-08-19T10:04:16;17.73;;;8.25;;
71622;SDS011;59473;53.214;5.728;2022-08-19T10:06:41;19.33;;;9.77;;
71622;SDS011;59473;53.214;5.728;2022-08-19T10:09:08;19.45;;;10.55;;
71622;SDS011;59473;53.214;5.728;2022-08-19T10:11:34;19.83;;;9.30;;
71622;SDS011;59473;53.214;5.728;2022-08-19T10:14:01;18.05;;;9.38;;
71622;SDS011;59473;53.214;5.728;2022-08-19T10:16:27;17.75;;;9.70;;
71622;SDS011;59473;53.214;5.728;2022-08-19T10:18:52;19.27;;;9.63;;
71622;SDS011;59473;53.214;5.728;2022-08-19T10:21:23;14.68;;;9.25;;
71622;SDS011;59473;53.214;5.728;2022-08-19T10:23:49;15.90;;;8.63;;
71622;SDS011;59473;53.214;5.728;2022-08-19T10:26:16;14.87;;;8.20;;
71622;SDS011;59473;53.214;5.728;2022-08-19T10:28:42;15.98;;;8.43;;
71622;SDS011;59473;53.214;5.728;2022-08-19T10:31:08;14.63;;;7.53;;
71622;SDS011;59473;53.214;5.728;2022-08-19T10:33:34;19.27;;;7.88;;
71622;SDS011;59473;53.214;5.728;2022-08-19T10:36:01;16.98;;;7.32;;
71622;SDS011;59473;53.214;5.728;2022-08-19T10:38:26;16.25;;;6.85;;
71622;SDS011;59473;53.214;5.728;2022-08-19T10:40:53;17.40;;;8.30;;
71622;SDS011;59473;53.214;5.728;2022-08-19T10:43:18;15.03;;;6.93;;
71622;SDS011;59473;53.214;5.728;2022-08-19T10:45:48;14.33;;;7.07;;
71622;SDS011;59473;53.214;5.728;2022-08-19T10:48:16;21.05;;;10.18;;
71622;SDS011;59473;53.214;5.728;2022-08-19T10:50:41;16.47;;;8.93;;
71622;SDS011;59473;53.214;5.728;2022-08-19T10:53:25;19.37;;;9.47;;
71622;SDS011;59473;53.214;5.728;2022-08-19T10:55:50;18.52;;;9.68;;
71622;SDS011;59473;53.214;5.728;2022-08-19T10:58:34;16.60;;;9.47;;
71622;SDS011;59473;53.214;5.728;2022-08-19T11:01:00;14.60;;;8.07;;
71622;SDS011;59473;53.214;5.728;2022-08-19T11:03:25;17.57;;;9.57;;
71622;SDS011;59473;53.214;5.728;2022-08-19T11:06:02;19.15;;;9.98;;
71622;SDS011;59473;53.214;5.728;2022-08-19T11:08:28;19.33;;;9.18;;
71622;SDS011;59473;53.214;5.728;2022-08-19T11:10:55;19.90;;;9.60;;
71622;SDS011;59473;53.214;5.728;2022-08-19T11:13:26;17.75;;;7.88;;
71622;SDS011;59473;53.214;5.728;2022-08-19T11:16:03;15.23;;;8.00;;
71622;SDS011;59473;53.214;5.728;2022-08-19T11:18:29;11.15;;;5.95;;
71622;SDS011;59473;53.214;5.728;2022-08-19T11:20:54;11.87;;;6.80;;
71622;SDS011;59473;53.214;5.728;2022-08-19T11:23:19;15.27;;;7.30;;
71622;SDS011;59473;53.214;5.728;2022-08-19T11:25:45;19.13;;;8.30;;
71622;SDS011;59473;53.214;5.728;2022-08-19T11:28:11;20.63;;;7.93;;
71622;SDS011;59473;53.214;5.728;2022-08-19T11:30:37;15.30;;;8.00;;
71622;SDS011;59473;53.214;5.728;2022-08-19T11:33:02;12.10;;;8.03;;
71622;SDS011;59473;53.214;5.728;2022-08-19T11:35:27;19.37;;;10.60;;
71622;SDS011;59473;53.214;5.728;2022-08-19T11:37:53;16.27;;;9.03;;
71622;SDS011;59473;53.214;5.728;2022-08-19T11:40:18;17.13;;;8.23;;
71622;SDS011;59473;53.214;5.728;2022-08-19T11:42:43;16.10;;;8.00;;
71622;SDS011;59473;53.214;5.728;2022-08-19T11:45:25;14.10;;;7.57;;
71622;SDS011;59473;53.214;5.728;2022-08-19T11:47:50;11.55;;;6.00;;
71622;SDS011;59473;53.214;5.728;2022-08-19T11:50:15;15.47;;;6.17;;
71622;SDS011;59473;53.214;5.728;2022-08-19T11:52:41;11.97;;;6.40;;
71622;SDS011;59473;53.214;5.728;2022-08-19T11:55:07;10.57;;;5.50;;
71622;SDS011;59473;53.214;5.728;2022-08-19T11:57:33;11.63;;;4.37;;
71622;SDS011;59473;53.214;5.728;2022-08-19T11:59:58;11.73;;;4.57;;
71622;SDS011;59473;53.214;5.728;2022-08-19T12:02:23;12.90;;;6.37;;
71622;SDS011;59473;53.214;5.728;2022-08-19T12:04:49;10.97;;;6.73;;
71622;SDS011;59473;53.214;5.728;2022-08-19T12:07:14;12.77;;;6.07;;
71622;SDS011;59473;53.214;5.728;2022-08-19T12:09:39;13.50;;;6.37;;
71622;SDS011;59473;53.214;5.728;2022-08-19T12:12:05;13.67;;;6.33;;
71622;SDS011;59473;53.214;5.728;2022-08-19T12:14:30;14.60;;;6.67;;
71622;SDS011;59473;53.214;5.728;2022-08-19T12:16:57;15.23;;;6.80;;
71622;SDS011;59473;53.214;5.728;2022-08-19T12:19:22;14.35;;;6.47;;
71622;SDS011;59473;53.214;5.728;2022-08-19T12:21:49;12.90;;;7.10;;
71622;SDS011;59473;53.214;5.728;2022-08-19T12:24:15;12.25;;;6.88;;
71622;SDS011;59473;53.214;5.728;2022-08-19T12:26:40;13.53;;;7.00;;
71622;SDS011;59473;53.214;5.728;2022-08-19T12:29:05;12.60;;;6.53;;
71622;SDS011;59473;53.214;5.728;2022-08-19T12:31:31;13.63;;;6.47;;
71622;SDS011;59473;53.214;5.728;2022-08-19T12:33:56;10.33;;;6.30;;
71622;SDS011;59473;53.214;5.728;2022-08-19T12:36:22;13.03;;;6.47;;
71622;SDS011;59473;53.214;5.728;2022-08-19T12:38:48;14.93;;;6.70;;
71622;SDS011;59473;53.214;5.728;2022-08-19T12:41:14;17.42;;;8.57;;
71622;SDS011;59473;53.214;5.728;2022-08-19T12:43:40;12.67;;;7.30;;
71622;SDS011;59473;53.214;5.728;2022-08-19T12:46:07;14.18;;;6.97;;
71622;SDS011;59473;53.214;5.728;2022-08-19T12:48:32;12.57;;;8.88;;
71622;SDS011;59473;53.214;5.728;2022-08-19T12:50:57;16.20;;;8.60;;
71622;SDS011;59473;53.214;5.728;2022-08-19T12:53:23;15.47;;;8.20;;
71622;SDS011;59473;53.214;5.728;2022-08-19T12:55:54;16.43;;;9.13;;
71622;SDS011;59473;53.214;5.728;2022-08-19T12:58:20;15.60;;;8.25;;
71622;SDS011;59473;53.214;5.728;2022-08-19T13:00:46;12.20;;;7.23;;
71622;SDS011;59473;53.214;5.728;2022-08-19T13:03:11;12.17;;;6.53;;
71622;SDS011;59473;53.214;5.728;2022-08-19T13:05:36;10.67;;;6.77;;
71622;SDS011;59473;53.214;5.728;2022-08-19T13:08:02;13.93;;;7.27;;
71622;SDS011;59473;53.214;5.728;2022-08-19T13:10:31;12.02;;;7.65;;
71622;SDS011;59473;53.214;5.728;2022-08-19T13:13:01;12.90;;;7.23;;
71622;SDS011;59473;53.214;5.728;2022-08-19T13:15:26;21.15;;;11.15;;
71622;SDS011;59473;53.214;5.728;2022-08-19T13:17:53;16.30;;;9.45;;
71622;SDS011;59473;53.214;5.728;2022-08-19T13:20:20;14.38;;;9.45;;
71622;SDS011;59473;53.214;5.728;2022-08-19T13:22:47;17.92;;;10.93;;
71622;SDS011;59473;53.214;5.728;2022-08-19T13:25:13;17.53;;;9.53;;
71622;SDS011;59473;53.214;5.728;2022-08-19T13:27:41;14.00;;;8.73;;
71622;SDS011;59473;53.214;5.728;2022-08-19T13:30:07;14.57;;;8.37;;
71622;SDS011;59473;53.214;5.728;2022-08-19T13:32:51;15.65;;;9.80;;
71622;SDS011;59473;53.214;5.728;2022-08-19T13:35:35;13.35;;;7.38;;
71622;SDS011;59473;53.214;5.728;2022-08-19T13:38:01;13.90;;;7.43;;
71622;SDS011;59473;53.214;5.728;2022-08-19T13:40:29;13.25;;;6.95;;
71622;SDS011;59473;53.214;5.728;2022-08-19T13:42:56;16.80;;;7.55;;
71622;SDS011;59473;53.214;5.728;2022-08-19T13:45:23;12.47;;;6.77;;
71622;SDS011;59473;53.214;5.728;2022-08-19T13:47:49;17.63;;;7.53;;
71622;SDS011;59473;53.214;5.728;2022-08-19T13:50:19;13.07;;;6.05;;
71622;SDS011;59473;53.214;5.728;2022-08-19T13:52:45;12.50;;;5.38;;
71622;SDS011;59473;53.214;5.728;2022-08-19T13:55:11;11.33;;;4.40;;
71622;SDS011;59473;53.214;5.728;2022-08-19T13:57:37;10.25;;;3.80;;
71622;SDS011;59473;53.214;5.728;2022-08-19T14:00:04;9.45;;;4.45;;
71622;SDS011;59473;53.214;5.728;2022-08-19T14:02:30;8.32;;;5.20;;
71622;SDS011;59473;53.214;5.728;2022-08-19T14:04:55;11.63;;;5.40;;
71622;SDS011;59473;53.214;5.728;2022-08-19T14:07:20;9.57;;;5.40;;
71622;SDS011;59473;53.214;5.728;2022-08-19T14:09:48;12.30;;;6.53;;
71622;SDS011;59473;53.214;5.728;2022-08-19T14:12:13;9.40;;;6.00;;
71622;SDS011;59473;53.214;5.728;2022-08-19T14:14:39;12.47;;;4.43;;
71622;SDS011;59473;53.214;5.728;2022-08-19T14:17:07;8.50;;;3.15;;
71622;SDS011;59473;53.214;5.728;2022-08-19T14:19:33;8.17;;;3.40;;
71622;SDS011;59473;53.214;5.728;2022-08-19T14:21:58;7.80;;;4.13;;
71622;SDS011;59473;53.214;5.728;2022-08-19T14:24:23;10.23;;;4.63;;
71622;SDS011;59473;53.214;5.728;2022-08-19T14:26:49;8.98;;;3.80;;
71622;SDS011;59473;53.214;5.728;2022-08-19T14:29:14;9.10;;;4.43;;
71622;SDS011;59473;53.214;5.728;2022-08-19T14:31:39;5.57;;;2.50;;
71622;SDS011;59473;53.214;5.728;2022-08-19T14:34:08;7.63;;;3.05;;
71622;SDS011;59473;53.214;5.728;2022-08-19T14:36:35;8.90;;;3.47;;